Time;durP1;ratioP1;P1;durP2;ratioP2;P2;SDS_P1;SDS_P2;PMS_P1;PMS_P2;Temp;Humidity;BMP_temperature;BMP_pressure;BME280_temperature;BME280_humidity;BME280_pressure;Samples;Min_cycle;Max_cycle;Signal;HPM_P1;HPM_P2
2024/03/07 00:00:17;;;;;;;29.40;17.40;;;;;;;0.29;77.73;102684.84;105127;1254;66785;-66
2024/03/07 00:03:04;;;;;;;32.50;17.00;;;;;;;0.26;77.85;102686.82;109170;1254;72404;-67
2024/03/07 00:05:31;;;;;;;27.60;16.50;;;;;;;0.23;77.56;102686.17;109116;1254;58905;-66
2024/03/07 00:07:59;;;;;;;27.70;17.40;;;;;;;0.17;77.58;102686.27;107720;1255;138854;-66
2024/03/07 00:10:26;;;;;;;29.40;18.10;;;;;;;0.13;77.61;102686.41;105066;1257;72951;-67
2024/03/07 00:12:53;;;;;;;27.00;17.10;;;;;;;0.08;77.75;102685.56;104830;1260;138155;-65
2024/03/07 00:15:21;;;;;;;33.80;18.10;;;;;;;0.06;77.90;102680.84;109176;1254;71643;-66
2024/03/07 00:17:48;;;;;;;26.60;17.00;;;;;;;0.03;77.83;102679.89;105379;1258;61282;-65
2024/03/07 00:20:15;;;;;;;32.10;17.00;;;;;;;0.00;77.87;102678.05;105030;1254;138435;-65
2024/03/07 00:22:42;;;;;;;27.20;15.80;;;;;;;-0.02;77.98;102681.15;105087;1256;74328;-64
2024/03/07 00:25:09;;;;;;;31.10;16.90;;;;;;;-0.04;78.03;102683.34;104909;1257;139393;-65
2024/03/07 00:27:36;;;;;;;29.60;16.50;;;;;;;-0.05;78.09;102682.77;108665;1255;70637;-65
2024/03/07 00:30:08;;;;;;;28.20;16.50;;;;;;;-0.04;78.07;102685.04;105094;1254;61357;-65
2024/03/07 00:32:38;;;;;;;35.20;18.40;;;;;;;-0.06;78.26;102683.19;108982;1254;139384;-66
2024/03/07 00:35:08;;;;;;;29.60;17.30;;;;;;;-0.09;78.19;102682.11;106176;1258;73720;-66
2024/03/07 00:37:36;;;;;;;29.50;17.20;;;;;;;-0.11;78.24;102681.82;109020;1255;139236;-67
2024/03/07 00:40:03;;;;;;;30.30;18.20;;;;;;;-0.12;78.08;102679.98;108969;1254;72782;-66
2024/03/07 00:42:29;;;;;;;29.80;18.10;;;;;;;-0.14;78.10;102677.20;109041;1253;138823;-66
2024/03/07 00:44:56;;;;;;;34.10;18.10;;;;;;;-0.15;78.14;102676.20;109157;1255;61103;-65
2024/03/07 00:47:23;;;;;;;33.10;18.00;;;;;;;-0.17;78.09;102673.45;109032;1254;74745;-67
2024/03/07 00:49:49;;;;;;;32.80;19.00;;;;;;;-0.17;78.21;102680.61;109071;1253;139801;-67
2024/03/07 00:52:16;;;;;;;38.00;19.30;;;;;;;-0.17;78.13;102683.92;109148;1254;72519;-67
2024/03/07 00:54:43;;;;;;;30.10;17.60;;;;;;;-0.20;78.16;102686.30;108940;1254;143436;-66
2024/03/07 00:57:09;;;;;;;32.00;19.30;;;;;;;-0.21;78.28;102682.23;106904;1255;61255;-67
2024/03/07 00:59:36;;;;;;;36.10;20.60;;;;;;;-0.23;78.23;102685.82;104936;1258;73743;-67
2024/03/07 01:02:03;;;;;;;36.20;19.60;;;;;;;-0.25;78.22;102683.17;104995;1254;139151;-68
2024/03/07 01:04:33;;;;;;;34.90;20.30;;;;;;;-0.30;78.17;102684.44;105002;1257;73535;-67
2024/03/07 01:07:00;;;;;;;31.60;20.00;;;;;;;-0.34;78.58;102685.52;105368;1256;139183;-67
2024/03/07 01:09:28;;;;;;;35.20;19.30;;;;;;;-0.37;78.35;102685.92;105003;1256;61379;-68
2024/03/07 01:11:55;;;;;;;35.70;19.00;;;;;;;-0.41;78.59;102684.15;105079;1254;75588;-67
2024/03/07 01:14:22;;;;;;;30.70;18.60;;;;;;;-0.44;78.65;102681.23;104917;1255;138780;-66
2024/03/07 01:16:49;;;;;;;34.90;19.50;;;;;;;-0.48;78.58;102683.35;107260;1254;71914;-67
2024/03/07 01:19:16;;;;;;;45.80;20.60;;;;;;;-0.51;78.71;102678.49;104791;1259;138700;-67
2024/03/07 01:21:42;;;;;;;34.30;18.00;;;;;;;-0.54;78.62;102678.73;104999;1254;61289;-67
2024/03/07 01:24:09;;;;;;;35.90;18.50;;;;;;;-0.54;78.93;102676.60;104858;1259;75259;-67
2024/03/07 01:26:36;;;;;;;31.20;18.20;;;;;;;-0.54;78.96;102679.08;106532;1254;139233;-68
2024/03/07 01:29:04;;;;;;;30.50;17.80;;;;;;;-0.54;78.86;102679.44;104720;1254;73321;-68
2024/03/07 01:31:31;;;;;;;35.20;19.50;;;;;;;-0.54;79.33;102675.30;104729;1257;139311;-66
2024/03/07 01:33:58;;;;;;;35.90;19.20;;;;;;;-0.54;79.13;102678.16;104631;1254;61277;-67
2024/03/07 01:36:24;;;;;;;37.00;19.30;;;;;;;-0.55;79.11;102676.94;104878;1254;73610;-67
2024/03/07 01:38:51;;;;;;;31.20;18.70;;;;;;;-0.55;79.30;102676.75;104843;1254;138574;-66
2024/03/07 01:41:19;;;;;;;30.30;17.60;;;;;;;-0.53;79.20;102679.55;104901;1254;73454;-66
2024/03/07 01:43:46;;;;;;;31.10;18.90;;;;;;;-0.50;79.42;102676.36;104811;1254;138761;-66
2024/03/07 01:46:12;;;;;;;35.20;19.30;;;;;;;-0.50;79.32;102672.07;104949;1253;61147;-66
2024/03/07 01:48:40;;;;;;;39.40;19.70;;;;;;;-0.54;79.25;102671.99;104810;1254;139611;-66
2024/03/07 01:51:07;;;;;;;32.60;20.00;;;;;;;-0.57;79.10;102670.27;109132;1254;65976;-66
2024/03/07 01:53:34;;;;;;;35.50;19.40;;;;;;;-0.60;79.17;102670.87;106710;1256;72087;-65
2024/03/07 01:56:00;;;;;;;40.10;20.20;;;;;;;-0.65;79.12;102668.65;104879;1257;137840;-65
2024/03/07 01:58:27;;;;;;;38.20;20.70;;;;;;;-0.69;79.30;102668.05;105054;1254;61360;-65
2024/03/07 02:00:54;;;;;;;39.70;21.10;;;;;;;-0.73;79.17;102671.23;104792;1254;139601;-67
2024/03/07 02:03:20;;;;;;;32.30;20.00;;;;;;;-0.77;79.35;102673.60;104965;1255;64793;-66
2024/03/07 02:05:47;;;;;;;37.50;19.60;;;;;;;-0.81;79.58;102671.38;105030;1258;73661;-66
2024/03/07 02:08:14;;;;;;;34.00;19.00;;;;;;;-0.82;79.41;102669.52;104931;1256;138914;-66
2024/03/07 02:10:41;;;;;;;34.90;20.10;;;;;;;-0.83;79.85;102667.37;104929;1255;61181;-66
2024/03/07 02:13:08;;;;;;;34.90;19.60;;;;;;;-0.82;79.79;102665.59;104797;1256;139034;-67
2024/03/07 02:15:35;;;;;;;36.40;19.30;;;;;;;-0.81;80.08;102664.88;105024;1258;66858;-67
2024/03/07 02:18:02;;;;;;;32.50;18.80;;;;;;;-0.78;79.95;102663.54;104919;1254;73527;-66
2024/03/07 02:20:28;;;;;;;29.90;19.40;;;;;;;-0.79;79.85;102664.39;104657;1256;138733;-66
2024/03/07 02:22:55;;;;;;;41.00;21.80;;;;;;;-0.81;79.83;102660.03;104961;1254;61312;-66
2024/03/07 02:25:22;;;;;;;36.00;20.50;;;;;;;-0.83;79.89;102662.40;107876;1255;139786;-66
2024/03/07 02:27:49;;;;;;;37.80;20.40;;;;;;;-0.86;79.80;102658.42;105018;1255;64768;-65
2024/03/07 02:30:18;;;;;;;40.40;21.50;;;;;;;-0.89;79.74;102658.34;105062;1254;71780;-66
2024/03/07 02:32:51;;;;;;;38.20;21.90;;;;;;;-0.90;79.95;102661.77;104816;1258;139167;-66
2024/03/07 02:35:18;;;;;;;39.60;22.10;;;;;;;-0.94;79.93;102660.77;109208;1253;59039;-67
2024/03/07 02:37:48;;;;;;;36.50;21.30;;;;;;;-0.96;80.03;102658.23;105633;1254;138604;-67
2024/03/07 02:40:16;;;;;;;33.90;20.80;;;;;;;-1.00;79.84;102660.86;108099;1254;66898;-68
2024/03/07 02:42:43;;;;;;;40.60;22.40;;;;;;;-1.01;79.87;102657.94;104789;1254;138539;-68
2024/03/07 02:45:14;;;;;;;38.30;21.50;;;;;;;-1.03;80.00;102655.73;105415;1253;61134;-68
2024/03/07 02:47:41;;;;;;;36.80;21.10;;;;;;;-1.05;79.96;102658.08;105148;1258;61240;-67
2024/03/07 02:50:09;;;;;;;40.50;22.10;;;;;;;-1.07;80.14;102654.77;104972;1255;137924;-67
2024/03/07 02:52:36;;;;;;;35.40;20.90;;;;;;;-1.11;80.14;102658.33;104953;1259;67301;-67
2024/03/07 02:55:04;;;;;;;34.90;22.00;;;;;;;-1.14;80.38;102653.72;108997;1253;138828;-67
2024/03/07 02:57:31;;;;;;;34.40;19.90;;;;;;;-1.17;80.53;102655.86;109169;1254;58942;-67
2024/03/07 02:59:58;;;;;;;40.10;20.30;;;;;;;-1.18;80.39;102658.69;109223;1253;59785;-67
2024/03/07 03:02:25;;;;;;;39.60;22.40;;;;;;;-1.20;80.53;102658.46;109088;1254;138644;-67
2024/03/07 03:04:52;;;;;;;37.90;21.80;;;;;;;-1.22;80.60;102657.91;106440;1255;66415;-66
2024/03/07 03:07:18;;;;;;;42.00;22.20;;;;;;;-1.24;80.49;102655.31;104694;1254;138801;-66
2024/03/07 03:09:45;;;;;;;40.60;21.50;;;;;;;-1.24;80.58;102659.21;104985;1254;61132;-66
2024/03/07 03:12:12;;;;;;;38.50;21.60;;;;;;;-1.25;80.80;102662.09;104870;1255;61298;-66
2024/03/07 03:14:39;;;;;;;38.30;21.70;;;;;;;-1.26;80.73;102658.98;104779;1253;138647;-66
2024/03/07 03:17:08;;;;;;;33.70;21.90;;;;;;;-1.27;80.78;102664.58;104942;1256;65541;-67
2024/03/07 03:19:36;;;;;;;38.10;21.80;;;;;;;-1.29;80.97;102661.44;104726;1255;138910;-67
2024/03/07 03:22:03;;;;;;;38.30;21.60;;;;;;;-1.30;80.94;102663.72;105003;1255;61156;-65
2024/03/07 03:24:30;;;;;;;36.20;21.90;;;;;;;-1.31;80.99;102662.12;104943;1258;61245;-66
2024/03/07 03:26:57;;;;;;;39.20;22.10;;;;;;;-1.32;81.19;102663.24;104847;1258;75100;-65
2024/03/07 03:29:24;;;;;;;39.60;22.50;;;;;;;-1.32;81.26;102663.39;105039;1256;64421;-65
2024/03/07 03:31:51;;;;;;;39.70;22.20;;;;;;;-1.31;81.31;102661.62;104767;1255;138680;-64
2024/03/07 03:34:17;;;;;;;36.60;21.00;;;;;;;-1.31;81.24;102662.66;104923;1254;61313;-64
2024/03/07 03:36:44;;;;;;;35.50;21.60;;;;;;;-1.30;81.61;102661.52;105059;1257;139271;-65
2024/03/07 03:39:13;;;;;;;35.30;20.90;;;;;;;-1.31;81.37;102660.02;105028;1257;74087;-65
2024/03/07 03:41:40;;;;;;;40.40;21.40;;;;;;;-1.32;81.57;102661.30;109172;1254;65178;-66
2024/03/07 03:44:06;;;;;;;36.90;20.60;;;;;;;-1.36;81.56;102654.90;109060;1254;139030;-66
2024/03/07 03:46:33;;;;;;;35.20;20.50;;;;;;;-1.34;81.45;102659.73;109220;1254;59081;-67
2024/03/07 03:49:00;;;;;;;36.70;21.00;;;;;;;-1.33;81.68;102664.63;109129;1254;138693;-66
2024/03/07 03:51:26;;;;;;;38.10;21.70;;;;;;;-1.34;81.59;102661.83;109163;1254;73411;-66
2024/03/07 03:53:53;;;;;;;36.50;19.80;;;;;;;-1.34;81.45;102664.39;109206;1253;64970;-66
2024/03/07 03:56:20;;;;;;;39.50;21.40;;;;;;;-1.34;81.37;102667.61;108830;1254;139084;-65
2024/03/07 03:58:47;;;;;;;39.60;20.50;;;;;;;-1.34;81.55;102667.49;106701;1257;61261;-65
2024/03/07 04:01:14;;;;;;;36.40;20.70;;;;;;;-1.34;81.60;102665.06;104941;1258;139679;-65
2024/03/07 04:03:41;;;;;;;41.20;23.10;;;;;;;-1.33;81.51;102664.96;109204;1254;75141;-65
2024/03/07 04:06:08;;;;;;;41.80;21.30;;;;;;;-1.32;81.62;102663.85;109119;1253;66170;-66
2024/03/07 04:08:36;;;;;;;36.50;21.80;;;;;;;-1.32;81.83;102666.02;107374;1255;138483;-65
2024/03/07 04:11:04;;;;;;;41.50;21.30;;;;;;;-1.30;81.78;102666.02;104928;1258;61243;-64
2024/03/07 04:13:31;;;;;;;34.00;21.20;;;;;;;-1.30;81.81;102667.05;105575;1255;138760;-65
2024/03/07 04:15:59;;;;;;;42.40;22.00;;;;;;;-1.30;81.78;102666.50;104971;1256;75368;-65
2024/03/07 04:18:26;;;;;;;37.40;20.20;;;;;;;-1.30;81.81;102666.14;109003;1254;65246;-65
2024/03/07 04:20:54;;;;;;;35.30;19.70;;;;;;;-1.30;82.02;102667.75;109095;1254;138476;-66
2024/03/07 04:23:20;;;;;;;34.00;21.00;;;;;;;-1.28;82.07;102663.23;109175;1255;58985;-66
2024/03/07 04:25:47;;;;;;;32.70;19.50;;;;;;;-1.25;82.17;102665.86;109089;1254;139052;-66
2024/03/07 04:28:13;;;;;;;36.40;21.10;;;;;;;-1.23;82.31;102664.19;107046;1256;73784;-66
2024/03/07 04:30:42;;;;;;;35.60;20.10;;;;;;;-1.22;82.21;102662.49;104963;1256;138756;-66
2024/03/07 04:33:09;;;;;;;37.90;21.10;;;;;;;-1.23;82.13;102661.17;104959;1257;73834;-67
2024/03/07 04:35:35;;;;;;;39.20;23.00;;;;;;;-1.25;82.22;102663.12;104916;1258;60478;-67
2024/03/07 04:38:03;;;;;;;36.10;21.20;;;;;;;-1.27;82.28;102659.80;104919;1258;138917;-66
2024/03/07 04:40:30;;;;;;;37.50;21.50;;;;;;;-1.27;82.26;102662.36;108246;1255;74953;-66
2024/03/07 04:42:56;;;;;;;36.90;21.40;;;;;;;-1.27;82.33;102664.55;104862;1254;139009;-65
2024/03/07 04:45:23;;;;;;;36.10;21.40;;;;;;;-1.29;82.31;102662.16;104995;1256;72584;-67
2024/03/07 04:47:49;;;;;;;32.40;20.60;;;;;;;-1.29;82.43;102669.67;104970;1258;61349;-67
2024/03/07 04:50:19;;;;;;;33.10;19.90;;;;;;;-1.28;82.53;102665.69;104966;1258;138601;-66
2024/03/07 04:52:46;;;;;;;36.90;21.00;;;;;;;-1.26;82.67;102666.13;107796;1256;76862;-67
2024/03/07 04:55:13;;;;;;;37.70;21.10;;;;;;;-1.23;82.78;102669.81;104975;1258;139364;-67
2024/03/07 04:57:41;;;;;;;35.00;19.40;;;;;;;-1.22;82.83;102671.19;105018;1255;73588;-67
2024/03/07 05:00:15;;;;;;;34.20;20.00;;;;;;;-1.19;82.98;102671.11;106035;1258;61360;-66
2024/03/07 05:02:41;;;;;;;34.40;18.10;;;;;;;-1.16;83.04;102672.42;109132;1254;139092;-66
2024/03/07 05:05:08;;;;;;;33.80;20.30;;;;;;;-1.15;83.17;102672.59;107816;1256;75671;-64
2024/03/07 05:07:35;;;;;;;38.00;19.20;;;;;;;-1.13;82.99;102677.37;105025;1256;139192;-64
2024/03/07 05:10:06;;;;;;;31.60;18.90;;;;;;;-1.13;83.00;102679.92;105056;1256;70843;-66
2024/03/07 05:12:33;;;;;;;33.00;20.10;;;;;;;-1.12;83.09;102679.89;105883;1256;61346;-65
2024/03/07 05:15:00;;;;;;;28.30;18.20;;;;;;;-1.10;83.34;102678.52;108938;1254;60726;-66
2024/03/07 05:17:28;;;;;;;34.30;19.20;;;;;;;-1.05;83.43;102680.42;109115;1254;74430;-67
2024/03/07 05:19:55;;;;;;;35.40;17.30;;;;;;;-1.02;83.43;102684.43;109126;1253;139345;-67
2024/03/07 05:22:24;;;;;;;33.40;18.10;;;;;;;-0.96;83.57;102684.64;105381;1259;71855;-66
2024/03/07 05:24:51;;;;;;;28.20;18.00;;;;;;;-0.92;83.54;102683.36;109032;1255;139005;-66
2024/03/07 05:27:18;;;;;;;28.10;17.60;;;;;;;-0.87;83.73;102681.98;106530;1254;60061;-66
2024/03/07 05:29:45;;;;;;;35.40;17.20;;;;;;;-0.81;83.53;102685.37;104923;1255;74995;-66
2024/03/07 05:32:24;;;;;;;30.50;18.60;;;;;;;-0.74;83.71;102683.27;104912;1258;138607;-66
2024/03/07 05:34:51;;;;;;;30.00;17.80;;;;;;;-0.65;83.89;102683.31;109158;1255;70481;-67
2024/03/07 05:37:18;;;;;;;31.70;16.90;;;;;;;-0.58;84.00;102679.91;105881;1258;139010;-66
2024/03/07 05:39:44;;;;;;;29.70;16.30;;;;;;;-0.51;83.94;102676.94;104828;1255;61439;-65
2024/03/07 05:42:13;;;;;;;27.20;17.90;;;;;;;-0.45;84.14;102680.72;104919;1257;74800;-66
2024/03/07 05:44:41;;;;;;;26.80;16.00;;;;;;;-0.39;83.94;102678.52;104914;1258;138962;-60
2024/03/07 05:47:08;;;;;;;32.60;17.10;;;;;;;-0.34;83.95;102678.15;109163;1254;72392;-62
2024/03/07 05:49:36;;;;;;;28.90;17.90;;;;;;;-0.29;83.82;102679.98;109084;1254;140772;-62
2024/03/07 05:52:05;;;;;;;29.70;16.70;;;;;;;-0.24;83.76;102682.10;109260;1254;59139;-62
2024/03/07 05:54:32;;;;;;;28.90;17.60;;;;;;;-0.15;83.70;102679.94;109222;1255;75121;-62
2024/03/07 05:56:59;;;;;;;28.60;17.00;;;;;;;-0.08;83.79;102680.88;108944;1254;139699;-62
2024/03/07 05:59:29;;;;;;;26.70;16.30;;;;;;;0.00;83.80;102677.54;109196;1256;72748;-62
2024/03/07 06:01:55;;;;;;;25.60;15.30;;;;;;;0.08;83.73;102679.19;109071;1255;138936;-62
2024/03/07 06:04:22;;;;;;;28.60;16.30;;;;;;;0.16;83.63;102677.74;106736;1257;61167;-63
2024/03/07 06:06:49;;;;;;;27.10;15.30;;;;;;;0.25;83.71;102674.38;104546;1258;139255;-64
2024/03/07 06:09:26;;;;;;;31.90;15.90;;;;;;;0.32;83.63;102678.21;104877;1258;66713;-63
2024/03/07 06:11:53;;;;;;;27.90;15.50;;;;;;;0.39;83.57;102675.77;104926;1258;71677;-64
2024/03/07 06:14:20;;;;;;;30.80;16.70;;;;;;;0.46;83.51;102677.28;104749;1256;138282;-64
2024/03/07 06:16:46;;;;;;;25.70;15.30;;;;;;;0.52;83.69;102675.31;109021;1254;59235;-65
2024/03/07 06:19:13;;;;;;;27.20;16.00;;;;;;;0.59;83.65;102676.84;108740;1256;138767;-65
2024/03/07 06:21:40;;;;;;;26.40;15.60;;;;;;;0.67;83.66;102673.65;109018;1254;66277;-64
2024/03/07 06:24:08;;;;;;;23.50;14.80;;;;;;;0.75;83.54;102676.84;109096;1254;72450;-64
2024/03/07 06:29:13;;;;;;;25.30;15.50;;;;;;;0.91;83.60;102678.37;105734;1254;61228;-66
2024/03/07 06:31:43;;;;;;;32.60;14.10;;;;;;;0.98;83.34;102677.27;104874;1256;138507;-64
2024/03/07 06:34:10;;;;;;;21.80;14.50;;;;;;;1.06;83.48;102679.39;109136;1256;65910;-64
2024/03/07 06:36:36;;;;;;;26.10;14.80;;;;;;;1.13;83.46;102677.85;108888;1254;140009;-64
2024/03/07 06:39:10;;;;;;;25.90;14.80;;;;;;;1.21;83.44;102678.85;107342;1254;61228;-64
2024/03/07 06:41:42;;;;;;;31.60;15.30;;;;;;;1.30;83.54;102678.67;108955;1254;59386;-64
2024/03/07 06:44:09;;;;;;;26.90;15.40;;;;;;;1.39;83.56;102681.60;108971;1255;138508;-64
2024/03/07 06:46:36;;;;;;;27.10;15.30;;;;;;;1.48;83.53;102685.52;109042;1256;64265;-64
2024/03/07 06:49:05;;;;;;;25.90;15.50;;;;;;;1.56;83.35;102682.67;108912;1255;139386;-65
2024/03/07 06:51:32;;;;;;;22.80;14.10;;;;;;;1.63;83.19;102683.32;109194;1253;59037;-65
2024/03/07 06:54:00;;;;;;;24.80;15.50;;;;;;;1.70;83.25;102682.05;109108;1254;59490;-63
2024/03/07 06:56:26;;;;;;;26.50;14.60;;;;;;;1.79;83.21;102679.73;108891;1256;139197;-63
2024/03/07 06:58:53;;;;;;;25.50;14.00;;;;;;;1.88;83.05;102678.17;108981;1256;64596;-63
2024/03/07 07:01:20;;;;;;;24.20;14.10;;;;;;;1.97;83.05;102675.84;108962;1256;138645;-64
2024/03/07 07:03:50;;;;;;;27.60;13.90;;;;;;;2.03;83.00;102675.36;108917;1253;59185;-64
2024/03/07 07:06:16;;;;;;;24.90;14.50;;;;;;;2.12;83.06;102675.95;109080;1256;59086;-64
2024/03/07 07:08:44;;;;;;;32.70;14.80;;;;;;;2.21;83.07;102674.33;108975;1254;138458;-64
2024/03/07 07:11:11;;;;;;;21.20;12.90;;;;;;;2.30;83.09;102675.36;106012;1258;66556;-63
2024/03/07 07:13:38;;;;;;;20.20;12.00;;;;;;;2.39;82.98;102676.83;104821;1256;139007;-63
2024/03/07 07:16:05;;;;;;;19.00;12.20;;;;;;;2.48;82.91;102678.98;104892;1261;61344;-64
2024/03/07 07:18:32;;;;;;;24.40;13.30;;;;;;;2.56;82.89;102676.89;104994;1256;61742;-64
2024/03/07 07:20:59;;;;;;;21.30;13.30;;;;;;;2.62;82.94;102673.14;104748;1256;138267;-64
2024/03/07 07:23:26;;;;;;;26.20;13.00;;;;;;;2.67;82.78;102679.44;105074;1258;65663;-64
2024/03/07 07:25:53;;;;;;;22.30;13.70;;;;;;;2.71;82.71;102677.08;109035;1256;140253;-64
2024/03/07 07:28:21;;;;;;;21.60;12.50;;;;;;;2.75;82.63;102683.45;109048;1254;58980;-64
2024/03/07 07:30:48;;;;;;;24.20;13.40;;;;;;;2.77;82.50;102680.16;107516;1257;139260;-64
2024/03/07 07:33:15;;;;;;;20.90;12.60;;;;;;;2.83;82.46;102681.52;104975;1258;75319;-64
2024/03/07 07:35:42;;;;;;;22.50;13.10;;;;;;;2.87;82.45;102679.80;104970;1260;66801;-64
2024/03/07 07:38:10;;;;;;;19.80;12.60;;;;;;;2.92;82.36;102683.86;104846;1256;138485;-64
2024/03/07 07:40:37;;;;;;;17.70;11.50;;;;;;;2.96;82.16;102684.20;105058;1258;61342;-64
2024/03/07 07:43:04;;;;;;;28.00;11.80;;;;;;;3.00;82.03;102684.39;104829;1256;138934;-64
2024/03/07 07:45:32;;;;;;;18.90;11.20;;;;;;;3.02;82.11;102681.09;104916;1255;74265;-65
2024/03/07 07:47:59;;;;;;;16.60;10.80;;;;;;;3.04;82.01;102677.08;109086;1256;65459;-65
2024/03/07 07:50:26;;;;;;;16.40;11.30;;;;;;;3.09;81.95;102678.03;106791;1260;138141;-64
2024/03/07 07:52:54;;;;;;;13.90;9.20;;;;;;;3.13;81.92;102676.11;104872;1262;61745;-64
2024/03/07 07:55:21;;;;;;;14.20;9.30;;;;;;;3.17;81.72;102684.25;108979;1256;138267;-65
2024/03/07 07:58:07;;;;;;;14.50;8.60;;;;;;;3.18;81.44;102683.13;109153;1254;73220;-64
2024/03/07 08:00:34;;;;;;;12.60;8.30;;;;;;;3.20;81.26;102684.05;109081;1254;64826;-64
2024/03/07 08:03:03;;;;;;;10.70;7.80;;;;;;;3.22;80.94;102687.17;109080;1256;71928;-64
2024/03/07 08:05:35;;;;;;;14.70;7.90;;;;;;;3.23;80.88;102685.01;108218;1260;61402;-64
2024/03/07 08:08:06;;;;;;;15.00;8.20;;;;;;;3.25;80.67;102684.69;108936;1257;138445;-64
2024/03/07 08:10:34;;;;;;;10.70;7.70;;;;;;;3.27;80.61;102686.41;108511;1256;74433;-64
2024/03/07 08:13:02;;;;;;;14.70;8.70;;;;;;;3.32;80.50;102687.34;104936;1261;138317;-64
2024/03/07 08:15:29;;;;;;;14.30;8.40;;;;;;;3.39;80.36;102691.15;108393;1255;71463;-64
2024/03/07 08:17:57;;;;;;;14.20;8.80;;;;;;;3.39;79.87;102687.39;107126;1253;61224;-64
2024/03/07 08:20:25;;;;;;;13.70;7.30;;;;;;;3.43;79.90;102694.34;108898;1256;137961;-64
2024/03/07 08:22:53;;;;;;;13.30;8.20;;;;;;;3.45;79.57;102693.80;109103;1255;73857;-65
2024/03/07 08:25:20;;;;;;;12.80;7.70;;;;;;;3.44;79.35;102692.02;108913;1256;138838;-64
2024/03/07 08:27:48;;;;;;;12.90;8.60;;;;;;;3.50;79.38;102697.36;109217;1254;72081;-64
2024/03/07 08:30:15;;;;;;;14.10;7.70;;;;;;;3.57;79.15;102700.54;109021;1259;58917;-65
2024/03/07 08:32:43;;;;;;;10.60;7.90;;;;;;;3.62;79.00;102698.86;109038;1255;137981;-65
2024/03/07 08:35:09;;;;;;;14.80;8.70;;;;;;;3.66;78.66;102695.42;109067;1256;72649;-66
2024/03/07 08:37:37;;;;;;;11.20;7.50;;;;;;;3.72;78.61;102696.20;108920;1254;137817;-65
2024/03/07 08:40:04;;;;;;;14.80;9.30;;;;;;;3.76;78.43;102692.37;109014;1256;72463;-65
2024/03/07 08:42:33;;;;;;;12.60;8.00;;;;;;;3.81;78.20;102697.46;109105;1254;59098;-65
2024/03/07 08:45:04;;;;;;;12.40;7.90;;;;;;;3.82;77.69;102698.12;109087;1256;60329;-65
2024/03/07 08:47:32;;;;;;;9.90;7.50;;;;;;;3.82;77.21;102697.08;108474;1254;74751;-65
2024/03/07 08:49:59;;;;;;;10.60;7.00;;;;;;;3.85;77.07;102698.92;105000;1258;137963;-64
2024/03/07 08:52:26;;;;;;;9.40;7.10;;;;;;;3.85;76.51;102699.63;109279;1253;73389;-65
2024/03/07 08:54:53;;;;;;;11.60;6.70;;;;;;;3.84;76.06;102699.13;108948;1254;138427;-64
2024/03/07 08:57:21;;;;;;;9.00;6.70;;;;;;;3.84;75.85;102699.84;105103;1260;61714;-63
2024/03/07 08:59:48;;;;;;;10.90;7.10;;;;;;;3.87;75.60;102700.30;104914;1257;73505;-64
2024/03/07 09:02:15;;;;;;;8.70;6.20;;;;;;;3.87;75.27;102700.80;104770;1262;137959;-64
2024/03/07 09:04:42;;;;;;;13.30;6.70;;;;;;;3.88;75.34;102697.21;104827;1256;73073;-64
2024/03/07 09:07:08;;;;;;;11.50;6.30;;;;;;;3.93;75.40;102693.83;104811;1261;138187;-64
2024/03/07 09:09:35;;;;;;;11.50;6.10;;;;;;;3.97;75.23;102693.82;104901;1269;61154;-64
2024/03/07 09:12:02;;;;;;;7.70;5.50;;;;;;;3.99;74.99;102693.45;104935;1258;74250;-64
2024/03/07 09:14:29;;;;;;;10.30;5.80;;;;;;;3.96;74.44;102694.90;104937;1256;137370;-65
2024/03/07 09:16:56;;;;;;;8.80;5.70;;;;;;;3.92;74.39;102695.94;105072;1257;72003;-64
2024/03/07 09:19:27;;;;;;;8.80;5.10;;;;;;;3.92;74.06;102694.95;104975;1261;137556;-64
2024/03/07 09:21:54;;;;;;;7.00;5.10;;;;;;;3.92;73.73;102691.59;109105;1256;59126;-63
2024/03/07 09:24:23;;;;;;;8.00;5.00;;;;;;;3.93;73.61;102691.88;109026;1255;75834;-63
2024/03/07 09:26:51;;;;;;;8.20;5.30;;;;;;;3.95;73.32;102694.52;108992;1257;138136;-64
2024/03/07 09:29:22;;;;;;;8.80;6.50;;;;;;;3.97;73.05;102692.44;109111;1256;71741;-64
2024/03/07 09:31:52;;;;;;;20.70;13.20;;;;;;;4.03;72.87;102693.08;109006;1254;137326;-64
2024/03/07 09:34:20;;;;;;;8.90;5.70;;;;;;;4.06;72.64;102693.50;109061;1259;60251;-64
2024/03/07 09:36:48;;;;;;;6.70;4.40;;;;;;;4.09;72.69;102688.22;107490;1254;137484;-64
2024/03/07 09:39:16;;;;;;;6.30;4.70;;;;;;;4.15;72.49;102691.63;104925;1260;65195;-64
2024/03/07 09:41:42;;;;;;;6.80;4.40;;;;;;;4.17;72.01;102689.89;104991;1258;71858;-64
2024/03/07 09:44:11;;;;;;;6.20;4.40;;;;;;;4.16;71.81;102693.04;104830;1256;137703;-64
2024/03/07 09:46:38;;;;;;;9.60;4.60;;;;;;;4.12;71.17;102695.23;105019;1260;61323;-64
2024/03/07 09:49:05;;;;;;;8.30;4.50;;;;;;;4.10;71.01;102696.94;104828;1260;137737;-64
2024/03/07 09:51:32;;;;;;;5.50;4.30;;;;;;;4.10;71.06;102695.38;108948;1261;66074;-65
2024/03/07 09:53:59;;;;;;;6.10;4.00;;;;;;;4.12;70.85;102698.82;108892;1260;70860;-65
2024/03/07 09:56:28;;;;;;;6.20;4.10;;;;;;;4.14;70.45;102704.37;108966;1254;137485;-65
2024/03/07 09:58:57;;;;;;;7.00;4.80;;;;;;;4.14;70.35;102698.89;109182;1258;59122;-65
2024/03/07 10:01:26;;;;;;;5.60;4.00;;;;;;;4.17;70.17;102693.67;109042;1254;137210;-65
2024/03/07 10:04:11;;;;;;;9.80;5.40;;;;;;;4.21;70.25;102695.97;109126;1257;64851;-65
2024/03/07 10:06:39;;;;;;;11.80;4.80;;;;;;;4.26;70.30;102696.21;105613;1260;137443;-64
2024/03/07 10:09:07;;;;;;;7.10;4.50;;;;;;;4.28;70.26;102697.17;109071;1256;59033;-65
2024/03/07 10:11:36;;;;;;;6.70;4.10;;;;;;;4.26;69.76;102695.84;109010;1256;61605;-64
2024/03/07 10:14:04;;;;;;;7.80;4.80;;;;;;;4.24;69.67;102697.89;108986;1257;137502;-64
2024/03/07 10:16:32;;;;;;;7.50;4.30;;;;;;;4.27;69.67;102698.38;109222;1254;65580;-64
2024/03/07 10:19:01;;;;;;;6.00;4.70;;;;;;;4.34;69.36;102697.65;108963;1256;137581;-65
2024/03/07 10:21:28;;;;;;;12.00;4.80;;;;;;;4.36;69.42;102695.73;109012;1254;59256;-65
2024/03/07 10:24:11;;;;;;;6.30;4.50;;;;;;;4.36;69.26;102696.94;109088;1255;59198;-65
2024/03/07 10:26:40;;;;;;;8.60;5.30;;;;;;;4.34;69.11;102696.48;108983;1259;137336;-64
2024/03/07 10:29:09;;;;;;;5.90;4.60;;;;;;;4.35;69.14;102692.70;109042;1255;67814;-65
2024/03/07 10:31:38;;;;;;;7.60;5.30;;;;;;;4.37;69.18;102689.73;108999;1254;138127;-65
2024/03/07 10:34:04;;;;;;;8.10;4.20;;;;;;;4.38;68.88;102682.17;109069;1257;59027;-65
2024/03/07 10:36:31;;;;;;;6.60;4.20;;;;;;;4.41;68.48;102687.27;109126;1254;58828;-65
2024/03/07 10:39:21;;;;;;;7.10;4.50;;;;;;;4.38;68.23;102687.61;109037;1257;137874;-65
2024/03/07 10:41:49;;;;;;;7.50;4.10;;;;;;;4.36;68.34;102683.45;109109;1254;66269;-65
2024/03/07 10:44:22;;;;;;;7.70;4.70;;;;;;;4.41;68.49;102681.43;108990;1256;137439;-65
2024/03/07 10:46:53;;;;;;;8.20;5.10;;;;;;;4.50;68.30;102681.89;109153;1254;59938;-65
2024/03/07 10:49:24;;;;;;;8.70;5.00;;;;;;;4.53;68.16;102678.14;105579;1257;137478;-64
2024/03/07 10:52:12;;;;;;;7.70;4.60;;;;;;;4.55;67.93;102680.27;105224;1259;75680;-65
2024/03/07 10:55:00;;;;;;;7.00;4.70;;;;;;;4.55;67.87;102679.02;106056;1261;137571;-65
2024/03/07 10:57:36;;;;;;;7.60;4.50;;;;;;;4.56;67.93;102675.16;104956;1258;72068;-64
2024/03/07 11:00:24;;;;;;;6.70;4.40;;;;;;;4.61;67.94;102677.48;105024;1260;61310;-63
2024/03/07 11:02:53;;;;;;;7.10;4.50;;;;;;;4.64;67.52;102674.20;109017;1257;137112;-64
2024/03/07 11:05:20;;;;;;;5.80;4.20;;;;;;;4.63;67.50;102673.09;109064;1256;76182;-64
2024/03/07 11:07:51;;;;;;;6.50;4.60;;;;;;;4.65;67.43;102670.27;109047;1258;137231;-65
2024/03/07 11:10:20;;;;;;;9.30;4.20;;;;;;;4.65;67.23;102674.64;109035;1254;72730;-65
2024/03/07 11:12:47;;;;;;;7.60;4.30;;;;;;;4.62;67.10;102673.19;108869;1253;137497;-64